sensor_id;sensor_type;location;lat;lon;timestamp;P1;durP1;ratioP1;P2;durP2;ratioP2
64873;SDS011;51367;45.204;38.576;2023-03-05T00:01:42;1.33;;;1.02;;
64873;SDS011;51367;45.204;38.576;2023-03-05T00:04:09;2.92;;;1.70;;
64873;SDS011;51367;45.204;38.576;2023-03-05T00:06:38;1.52;;;1.30;;
64873;SDS011;51367;45.204;38.576;2023-03-05T00:09:04;2.00;;;1.67;;
64873;SDS011;51367;45.204;38.576;2023-03-05T00:11:31;2.22;;;1.73;;
64873;SDS011;51367;45.204;38.576;2023-03-05T00:13:58;2.45;;;1.67;;
64873;SDS011;51367;45.204;38.576;2023-03-05T00:16:27;2.55;;;1.58;;
64873;SDS011;51367;45.204;38.576;2023-03-05T00:18:53;8.10;;;1.40;;
64873;SDS011;51367;45.204;38.576;2023-03-05T00:21:24;8.32;;;1.10;;
64873;SDS011;51367;45.204;38.576;2023-03-05T00:23:55;1.92;;;1.83;;
64873;SDS011;51367;45.204;38.576;2023-03-05T00:26:23;2.17;;;1.73;;
64873;SDS011;51367;45.204;38.576;2023-03-05T00:28:50;6.05;;;2.00;;
64873;SDS011;51367;45.204;38.576;2023-03-05T00:31:20;1.85;;;1.55;;
64873;SDS011;51367;45.204;38.576;2023-03-05T00:33:57;2.38;;;1.83;;
64873;SDS011;51367;45.204;38.576;2023-03-05T00:36:25;2.47;;;1.60;;
64873;SDS011;51367;45.204;38.576;2023-03-05T00:38:52;2.83;;;1.55;;
64873;SDS011;51367;45.204;38.576;2023-03-05T00:41:19;1.88;;;1.52;;
64873;SDS011;51367;45.204;38.576;2023-03-05T00:43:45;3.55;;;1.48;;
64873;SDS011;51367;45.204;38.576;2023-03-05T00:46:11;3.75;;;1.55;;
64873;SDS011;51367;45.204;38.576;2023-03-05T00:48:37;3.40;;;2.25;;
64873;SDS011;51367;45.204;38.576;2023-03-05T00:51:03;1.58;;;1.13;;
64873;SDS011;51367;45.204;38.576;2023-03-05T00:53:30;2.15;;;1.50;;
64873;SDS011;51367;45.204;38.576;2023-03-05T00:55:56;4.47;;;1.83;;
64873;SDS011;51367;45.204;38.576;2023-03-05T00:58:24;4.65;;;1.42;;
64873;SDS011;51367;45.204;38.576;2023-03-05T01:00:50;2.53;;;1.65;;
64873;SDS011;51367;45.204;38.576;2023-03-05T01:03:19;2.85;;;1.92;;
64873;SDS011;51367;45.204;38.576;2023-03-05T01:05:44;1.58;;;1.48;;
64873;SDS011;51367;45.204;38.576;2023-03-05T01:08:10;2.55;;;1.23;;
64873;SDS011;51367;45.204;38.576;2023-03-05T01:10:36;0.80;;;0.80;;
64873;SDS011;51367;45.204;38.576;2023-03-05T01:13:03;0.47;;;0.47;;
64873;SDS011;51367;45.204;38.576;2023-03-05T01:15:29;1.00;;;0.90;;
64873;SDS011;51367;45.204;38.576;2023-03-05T01:17:55;2.95;;;1.20;;
64873;SDS011;51367;45.204;38.576;2023-03-05T01:20:21;6.60;;;0.73;;
64873;SDS011;51367;45.204;38.576;2023-03-05T01:22:47;2.15;;;1.23;;
64873;SDS011;51367;45.204;38.576;2023-03-05T01:25:13;0.80;;;0.80;;
64873;SDS011;51367;45.204;38.576;2023-03-05T01:27:40;1.67;;;1.27;;
64873;SDS011;51367;45.204;38.576;2023-03-05T01:30:06;0.82;;;0.82;;
64873;SDS011;51367;45.204;38.576;2023-03-05T01:32:33;1.25;;;1.17;;
64873;SDS011;51367;45.204;38.576;2023-03-05T01:35:00;0.90;;;0.90;;
64873;SDS011;51367;45.204;38.576;2023-03-05T01:37:27;1.35;;;1.25;;
64873;SDS011;51367;45.204;38.576;2023-03-05T01:39:53;2.08;;;1.13;;
64873;SDS011;51367;45.204;38.576;2023-03-05T01:42:19;1.13;;;0.73;;
64873;SDS011;51367;45.204;38.576;2023-03-05T01:47:44;0.90;;;0.90;;
64873;SDS011;51367;45.204;38.576;2023-03-05T01:50:12;1.05;;;0.90;;
64873;SDS011;51367;45.204;38.576;2023-03-05T01:52:42;0.93;;;0.93;;
64873;SDS011;51367;45.204;38.576;2023-03-05T01:55:17;0.55;;;0.55;;
64873;SDS011;51367;45.204;38.576;2023-03-05T01:57:48;1.02;;;0.93;;
64873;SDS011;51367;45.204;38.576;2023-03-05T02:00:19;1.48;;;1.38;;
64873;SDS011;51367;45.204;38.576;2023-03-05T02:02:49;7.43;;;1.00;;
64873;SDS011;51367;45.204;38.576;2023-03-05T02:05:23;1.08;;;1.08;;
64873;SDS011;51367;45.204;38.576;2023-03-05T02:07:54;1.02;;;0.93;;
64873;SDS011;51367;45.204;38.576;2023-03-05T02:10:25;3.05;;;1.27;;
64873;SDS011;51367;45.204;38.576;2023-03-05T02:12:55;1.50;;;1.38;;
64873;SDS011;51367;45.204;38.576;2023-03-05T02:15:24;1.88;;;1.67;;
64873;SDS011;51367;45.204;38.576;2023-03-05T02:17:50;1.10;;;1.00;;
64873;SDS011;51367;45.204;38.576;2023-03-05T02:20:17;0.85;;;0.85;;
64873;SDS011;51367;45.204;38.576;2023-03-05T02:22:45;1.92;;;1.67;;
64873;SDS011;51367;45.204;38.576;2023-03-05T02:25:25;0.85;;;0.85;;
64873;SDS011;51367;45.204;38.576;2023-03-05T02:27:59;4.82;;;1.63;;
64873;SDS011;51367;45.204;38.576;2023-03-05T02:30:30;1.38;;;1.30;;
64873;SDS011;51367;45.204;38.576;2023-03-05T02:32:56;1.77;;;1.67;;
64873;SDS011;51367;45.204;38.576;2023-03-05T02:35:23;2.40;;;1.77;;
64873;SDS011;51367;45.204;38.576;2023-03-05T02:37:49;7.38;;;1.70;;
64873;SDS011;51367;45.204;38.576;2023-03-05T02:40:15;1.63;;;1.52;;
64873;SDS011;51367;45.204;38.576;2023-03-05T02:42:42;3.83;;;3.38;;
64873;SDS011;51367;45.204;38.576;2023-03-05T02:45:10;3.17;;;2.85;;
64873;SDS011;51367;45.204;38.576;2023-03-05T02:47:36;2.03;;;1.63;;
64873;SDS011;51367;45.204;38.576;2023-03-05T02:50:03;2.15;;;1.92;;
64873;SDS011;51367;45.204;38.576;2023-03-05T02:52:30;2.13;;;1.65;;
64873;SDS011;51367;45.204;38.576;2023-03-05T02:54:56;1.92;;;1.50;;
64873;SDS011;51367;45.204;38.576;2023-03-05T02:57:22;1.55;;;1.45;;
64873;SDS011;51367;45.204;38.576;2023-03-05T02:59:49;1.77;;;1.63;;
64873;SDS011;51367;45.204;38.576;2023-03-05T03:02:15;1.70;;;1.60;;
64873;SDS011;51367;45.204;38.576;2023-03-05T03:04:42;2.78;;;1.55;;
64873;SDS011;51367;45.204;38.576;2023-03-05T03:07:12;3.72;;;2.58;;
64873;SDS011;51367;45.204;38.576;2023-03-05T03:09:38;2.53;;;1.60;;
64873;SDS011;51367;45.204;38.576;2023-03-05T03:12:04;2.00;;;1.80;;
64873;SDS011;51367;45.204;38.576;2023-03-05T03:14:33;2.10;;;1.90;;
64873;SDS011;51367;45.204;38.576;2023-03-05T03:17:07;4.38;;;2.85;;
64873;SDS011;51367;45.204;38.576;2023-03-05T03:19:35;1.77;;;1.63;;
64873;SDS011;51367;45.204;38.576;2023-03-05T03:22:02;3.40;;;2.33;;
64873;SDS011;51367;45.204;38.576;2023-03-05T03:24:29;2.65;;;1.90;;
64873;SDS011;51367;45.204;38.576;2023-03-05T03:26:55;4.13;;;1.58;;
64873;SDS011;51367;45.204;38.576;2023-03-05T03:29:21;2.47;;;1.73;;
64873;SDS011;51367;45.204;38.576;2023-03-05T03:31:47;1.90;;;1.52;;
64873;SDS011;51367;45.204;38.576;2023-03-05T03:34:14;2.53;;;2.33;;
64873;SDS011;51367;45.204;38.576;2023-03-05T03:36:42;2.35;;;2.15;;
64873;SDS011;51367;45.204;38.576;2023-03-05T03:39:09;3.13;;;1.90;;
64873;SDS011;51367;45.204;38.576;2023-03-05T03:41:39;2.33;;;1.92;;
64873;SDS011;51367;45.204;38.576;2023-03-05T03:44:06;3.22;;;1.80;;
64873;SDS011;51367;45.204;38.576;2023-03-05T03:46:33;2.55;;;2.35;;
64873;SDS011;51367;45.204;38.576;2023-03-05T03:49:00;4.88;;;2.28;;
64873;SDS011;51367;45.204;38.576;2023-03-05T03:51:26;2.35;;;2.00;;
64873;SDS011;51367;45.204;38.576;2023-03-05T03:53:52;2.78;;;2.00;;
64873;SDS011;51367;45.204;38.576;2023-03-05T03:56:18;2.58;;;1.85;;
64873;SDS011;51367;45.204;38.576;2023-03-05T03:58:44;4.13;;;2.10;;
64873;SDS011;51367;45.204;38.576;2023-03-05T04:01:10;11.18;;;1.98;;
64873;SDS011;51367;45.204;38.576;2023-03-05T04:03:36;3.17;;;1.85;;
64873;SDS011;51367;45.204;38.576;2023-03-05T04:06:02;2.78;;;2.20;;
64873;SDS011;51367;45.204;38.576;2023-03-05T04:08:28;3.13;;;2.80;;
64873;SDS011;51367;45.204;38.576;2023-03-05T04:10:54;2.97;;;2.47;;
64873;SDS011;51367;45.204;38.576;2023-03-05T04:13:20;3.72;;;2.35;;
64873;SDS011;51367;45.204;38.576;2023-03-05T04:15:46;2.42;;;1.80;;
64873;SDS011;51367;45.204;38.576;2023-03-05T04:18:12;11.65;;;2.28;;
64873;SDS011;51367;45.204;38.576;2023-03-05T04:20:38;5.10;;;2.38;;
64873;SDS011;51367;45.204;38.576;2023-03-05T04:23:04;2.00;;;1.73;;
64873;SDS011;51367;45.204;38.576;2023-03-05T04:25:30;2.78;;;2.55;;
64873;SDS011;51367;45.204;38.576;2023-03-05T04:27:56;2.15;;;1.90;;
64873;SDS011;51367;45.204;38.576;2023-03-05T04:30:21;4.30;;;2.45;;
64873;SDS011;51367;45.204;38.576;2023-03-05T04:32:47;2.35;;;2.17;;
64873;SDS011;51367;45.204;38.576;2023-03-05T04:35:13;2.22;;;2.03;;
64873;SDS011;51367;45.204;38.576;2023-03-05T04:37:39;1.80;;;1.40;;
64873;SDS011;51367;45.204;38.576;2023-03-05T04:40:05;7.38;;;3.22;;
64873;SDS011;51367;45.204;38.576;2023-03-05T04:42:32;5.47;;;2.60;;
64873;SDS011;51367;45.204;38.576;2023-03-05T04:44:58;5.00;;;2.00;;
64873;SDS011;51367;45.204;38.576;2023-03-05T04:47:24;3.33;;;2.03;;
64873;SDS011;51367;45.204;38.576;2023-03-05T04:49:50;2.22;;;2.03;;
64873;SDS011;51367;45.204;38.576;2023-03-05T04:52:16;2.78;;;1.83;;
64873;SDS011;51367;45.204;38.576;2023-03-05T04:54:43;5.25;;;2.60;;
64873;SDS011;51367;45.204;38.576;2023-03-05T04:57:09;8.93;;;2.60;;
64873;SDS011;51367;45.204;38.576;2023-03-05T04:59:35;7.13;;;2.45;;
64873;SDS011;51367;45.204;38.576;2023-03-05T05:02:02;2.45;;;2.25;;
64873;SDS011;51367;45.204;38.576;2023-03-05T05:04:28;4.43;;;2.05;;
64873;SDS011;51367;45.204;38.576;2023-03-05T05:06:55;12.55;;;3.75;;
64873;SDS011;51367;45.204;38.576;2023-03-05T05:09:23;9.73;;;3.30;;
64873;SDS011;51367;45.204;38.576;2023-03-05T05:11:50;2.47;;;2.28;;
64873;SDS011;51367;45.204;38.576;2023-03-05T05:14:16;7.32;;;2.63;;
64873;SDS011;51367;45.204;38.576;2023-03-05T05:16:42;2.60;;;2.17;;
64873;SDS011;51367;45.204;38.576;2023-03-05T05:19:08;3.53;;;3.22;;
64873;SDS011;51367;45.204;38.576;2023-03-05T05:21:34;3.38;;;3.08;;
64873;SDS011;51367;45.204;38.576;2023-03-05T05:24:00;6.55;;;3.45;;
64873;SDS011;51367;45.204;38.576;2023-03-05T05:26:26;3.88;;;2.35;;
64873;SDS011;51367;45.204;38.576;2023-03-05T05:28:52;2.80;;;2.47;;
64873;SDS011;51367;45.204;38.576;2023-03-05T05:31:18;5.07;;;2.45;;
64873;SDS011;51367;45.204;38.576;2023-03-05T05:33:44;8.57;;;3.25;;
64873;SDS011;51367;45.204;38.576;2023-03-05T05:36:14;5.20;;;3.78;;
64873;SDS011;51367;45.204;38.576;2023-03-05T05:38:43;4.53;;;3.42;;
64873;SDS011;51367;45.204;38.576;2023-03-05T05:41:11;3.50;;;2.83;;
64873;SDS011;51367;45.204;38.576;2023-03-05T05:43:39;3.85;;;3.28;;
64873;SDS011;51367;45.204;38.576;2023-03-05T05:46:06;4.68;;;2.47;;
64873;SDS011;51367;45.204;38.576;2023-03-05T05:48:35;3.13;;;2.83;;
64873;SDS011;51367;45.204;38.576;2023-03-05T05:51:05;6.38;;;3.10;;
64873;SDS011;51367;45.204;38.576;2023-03-05T05:53:32;3.40;;;2.78;;
64873;SDS011;51367;45.204;38.576;2023-03-05T05:55:58;20.52;;;3.60;;
64873;SDS011;51367;45.204;38.576;2023-03-05T05:58:24;4.53;;;3.05;;
64873;SDS011;51367;45.204;38.576;2023-03-05T06:00:50;9.40;;;3.50;;
64873;SDS011;51367;45.204;38.576;2023-03-05T06:03:16;4.72;;;2.45;;
64873;SDS011;51367;45.204;38.576;2023-03-05T06:05:42;2.90;;;2.30;;
64873;SDS011;51367;45.204;38.576;2023-03-05T06:08:08;3.85;;;3.10;;
64873;SDS011;51367;45.204;38.576;2023-03-05T06:10:35;3.83;;;2.88;;
64873;SDS011;51367;45.204;38.576;2023-03-05T06:13:00;6.43;;;3.20;;
64873;SDS011;51367;45.204;38.576;2023-03-05T06:15:26;2.63;;;2.42;;
64873;SDS011;51367;45.204;38.576;2023-03-05T06:17:52;3.60;;;3.08;;
64873;SDS011;51367;45.204;38.576;2023-03-05T06:20:19;4.95;;;3.63;;
64873;SDS011;51367;45.204;38.576;2023-03-05T06:22:45;5.60;;;3.10;;
64873;SDS011;51367;45.204;38.576;2023-03-05T06:25:11;3.60;;;2.90;;
64873;SDS011;51367;45.204;38.576;2023-03-05T06:27:37;8.27;;;2.92;;
64873;SDS011;51367;45.204;38.576;2023-03-05T06:30:04;3.80;;;2.83;;
64873;SDS011;51367;45.204;38.576;2023-03-05T06:32:31;3.83;;;3.40;;
64873;SDS011;51367;45.204;38.576;2023-03-05T06:34:57;4.70;;;3.50;;
64873;SDS011;51367;45.204;38.576;2023-03-05T06:37:23;6.22;;;3.78;;
64873;SDS011;51367;45.204;38.576;2023-03-05T06:39:49;4.85;;;3.17;;
64873;SDS011;51367;45.204;38.576;2023-03-05T06:42:14;16.95;;;3.35;;
64873;SDS011;51367;45.204;38.576;2023-03-05T06:44:43;4.97;;;4.20;;
64873;SDS011;51367;45.204;38.576;2023-03-05T06:47:10;5.15;;;3.72;;
64873;SDS011;51367;45.204;38.576;2023-03-05T06:49:37;5.47;;;3.50;;
64873;SDS011;51367;45.204;38.576;2023-03-05T06:52:03;5.47;;;3.92;;
64873;SDS011;51367;45.204;38.576;2023-03-05T06:54:31;5.07;;;3.38;;
64873;SDS011;51367;45.204;38.576;2023-03-05T06:56:57;6.95;;;4.72;;
64873;SDS011;51367;45.204;38.576;2023-03-05T06:59:23;4.70;;;4.30;;
64873;SDS011;51367;45.204;38.576;2023-03-05T07:01:49;4.28;;;3.88;;
64873;SDS011;51367;45.204;38.576;2023-03-05T07:04:15;4.45;;;3.88;;
64873;SDS011;51367;45.204;38.576;2023-03-05T07:06:42;8.82;;;4.70;;
64873;SDS011;51367;45.204;38.576;2023-03-05T07:09:09;17.77;;;4.18;;
64873;SDS011;51367;45.204;38.576;2023-03-05T07:11:38;6.00;;;3.90;;
64873;SDS011;51367;45.204;38.576;2023-03-05T07:14:04;3.92;;;3.63;;
64873;SDS011;51367;45.204;38.576;2023-03-05T07:16:31;3.47;;;3.10;;
64873;SDS011;51367;45.204;38.576;2023-03-05T07:18:59;4.68;;;3.30;;
64873;SDS011;51367;45.204;38.576;2023-03-05T07:21:27;8.35;;;4.05;;
64873;SDS011;51367;45.204;38.576;2023-03-05T07:23:57;5.13;;;3.60;;
64873;SDS011;51367;45.204;38.576;2023-03-05T07:26:24;7.22;;;4.40;;
64873;SDS011;51367;45.204;38.576;2023-03-05T07:28:50;6.07;;;3.75;;
64873;SDS011;51367;45.204;38.576;2023-03-05T07:31:18;7.97;;;4.07;;
64873;SDS011;51367;45.204;38.576;2023-03-05T07:33:47;5.38;;;3.83;;
64873;SDS011;51367;45.204;38.576;2023-03-05T07:36:14;4.05;;;3.58;;
64873;SDS011;51367;45.204;38.576;2023-03-05T07:38:43;4.88;;;4.05;;
64873;SDS011;51367;45.204;38.576;2023-03-05T07:41:10;6.25;;;3.70;;
64873;SDS011;51367;45.204;38.576;2023-03-05T07:43:38;5.68;;;4.05;;
64873;SDS011;51367;45.204;38.576;2023-03-05T07:46:05;5.40;;;4.03;;
64873;SDS011;51367;45.204;38.576;2023-03-05T07:48:35;4.32;;;3.33;;
64873;SDS011;51367;45.204;38.576;2023-03-05T07:51:10;12.35;;;3.80;;
64873;SDS011;51367;45.204;38.576;2023-03-05T07:53:43;3.88;;;2.97;;
64873;SDS011;51367;45.204;38.576;2023-03-05T07:56:10;3.55;;;3.00;;
64873;SDS011;51367;45.204;38.576;2023-03-05T07:58:35;9.25;;;3.20;;
64873;SDS011;51367;45.204;38.576;2023-03-05T08:01:02;3.05;;;2.53;;
64873;SDS011;51367;45.204;38.576;2023-03-05T08:03:28;2.80;;;2.53;;
64873;SDS011;51367;45.204;38.576;2023-03-05T08:05:54;5.03;;;3.17;;
64873;SDS011;51367;45.204;38.576;2023-03-05T08:08:20;3.10;;;2.80;;
64873;SDS011;51367;45.204;38.576;2023-03-05T08:10:46;3.03;;;2.72;;
64873;SDS011;51367;45.204;38.576;2023-03-05T08:13:12;3.40;;;3.10;;
64873;SDS011;51367;45.204;38.576;2023-03-05T08:15:38;8.27;;;3.97;;
64873;SDS011;51367;45.204;38.576;2023-03-05T08:18:04;3.95;;;3.10;;
64873;SDS011;51367;45.204;38.576;2023-03-05T08:20:30;3.75;;;3.33;;
64873;SDS011;51367;45.204;38.576;2023-03-05T08:23:00;3.60;;;3.00;;
64873;SDS011;51367;45.204;38.576;2023-03-05T08:25:27;3.63;;;3.13;;
64873;SDS011;51367;45.204;38.576;2023-03-05T08:27:53;3.88;;;3.17;;
64873;SDS011;51367;45.204;38.576;2023-03-05T08:30:19;3.33;;;2.75;;
64873;SDS011;51367;45.204;38.576;2023-03-05T08:32:49;7.35;;;3.40;;
64873;SDS011;51367;45.204;38.576;2023-03-05T08:35:16;2.90;;;2.40;;
64873;SDS011;51367;45.204;38.576;2023-03-05T08:37:42;6.43;;;2.88;;
64873;SDS011;51367;45.204;38.576;2023-03-05T08:40:08;4.28;;;3.40;;
64873;SDS011;51367;45.204;38.576;2023-03-05T08:42:35;4.00;;;3.13;;
64873;SDS011;51367;45.204;38.576;2023-03-05T08:45:00;5.75;;;3.08;;
64873;SDS011;51367;45.204;38.576;2023-03-05T08:47:26;5.72;;;2.88;;
64873;SDS011;51367;45.204;38.576;2023-03-05T08:49:52;4.32;;;2.65;;
64873;SDS011;51367;45.204;38.576;2023-03-05T08:52:23;3.08;;;2.50;;
64873;SDS011;51367;45.204;38.576;2023-03-05T08:54:49;3.50;;;2.45;;
64873;SDS011;51367;45.204;38.576;2023-03-05T08:57:15;4.13;;;2.55;;
64873;SDS011;51367;45.204;38.576;2023-03-05T08:59:41;6.32;;;3.10;;
64873;SDS011;51367;45.204;38.576;2023-03-05T09:02:08;5.28;;;2.60;;
64873;SDS011;51367;45.204;38.576;2023-03-05T09:04:36;6.45;;;2.58;;
64873;SDS011;51367;45.204;38.576;2023-03-05T09:07:02;6.82;;;2.75;;
64873;SDS011;51367;45.204;38.576;2023-03-05T09:09:28;4.43;;;3.10;;
64873;SDS011;51367;45.204;38.576;2023-03-05T09:11:56;3.70;;;3.33;;
64873;SDS011;51367;45.204;38.576;2023-03-05T09:14:25;2.72;;;2.22;;
64873;SDS011;51367;45.204;38.576;2023-03-05T09:16:56;4.70;;;3.00;;
64873;SDS011;51367;45.204;38.576;2023-03-05T09:19:22;4.40;;;2.67;;
64873;SDS011;51367;45.204;38.576;2023-03-05T09:21:49;3.58;;;2.42;;
64873;SDS011;51367;45.204;38.576;2023-03-05T09:24:15;4.03;;;2.58;;
64873;SDS011;51367;45.204;38.576;2023-03-05T09:26:41;3.33;;;2.55;;
64873;SDS011;51367;45.204;38.576;2023-03-05T09:29:07;3.08;;;2.78;;
64873;SDS011;51367;45.204;38.576;2023-03-05T09:31:34;4.03;;;3.33;;
64873;SDS011;51367;45.204;38.576;2023-03-05T09:34:01;4.07;;;3.58;;
64873;SDS011;51367;45.204;38.576;2023-03-05T09:36:29;8.90;;;2.80;;
64873;SDS011;51367;45.204;38.576;2023-03-05T09:38:56;9.38;;;3.35;;
64873;SDS011;51367;45.204;38.576;2023-03-05T09:52:49;2.80;;;2.35;;
64873;SDS011;51367;45.204;38.576;2023-03-05T09:58:03;2.10;;;1.98;;
64873;SDS011;51367;45.204;38.576;2023-03-05T10:00:52;4.30;;;2.50;;
64873;SDS011;51367;45.204;38.576;2023-03-05T10:03:25;2.40;;;2.20;;
64873;SDS011;51367;45.204;38.576;2023-03-05T10:06:15;5.00;;;3.10;;
64873;SDS011;51367;45.204;38.576;2023-03-05T10:14:10;3.45;;;2.83;;
64873;SDS011;51367;45.204;38.576;2023-03-05T10:19:12;2.75;;;2.55;;
64873;SDS011;51367;45.204;38.576;2023-03-05T10:22:17;5.80;;;2.72;;
64873;SDS011;51367;45.204;38.576;2023-03-05T10:29:54;4.40;;;2.70;;
64873;SDS011;51367;45.204;38.576;2023-03-05T10:40:19;3.63;;;2.63;;
64873;SDS011;51367;45.204;38.576;2023-03-05T10:45:31;5.72;;;2.55;;
64873;SDS011;51367;45.204;38.576;2023-03-05T10:50:33;2.70;;;2.30;;
64873;SDS011;51367;45.204;38.576;2023-03-05T10:53:14;2.83;;;2.33;;
64873;SDS011;51367;45.204;38.576;2023-03-05T10:55:50;9.75;;;4.93;;
64873;SDS011;51367;45.204;38.576;2023-03-05T10:58:20;2.17;;;1.98;;
64873;SDS011;51367;45.204;38.576;2023-03-05T11:00:58;2.90;;;2.50;;
64873;SDS011;51367;45.204;38.576;2023-03-05T11:06:13;2.25;;;1.80;;
64873;SDS011;51367;45.204;38.576;2023-03-05T11:08:39;7.57;;;2.83;;
64873;SDS011;51367;45.204;38.576;2023-03-05T11:11:16;4.88;;;3.03;;
64873;SDS011;51367;45.204;38.576;2023-03-05T11:13:57;4.65;;;2.47;;
64873;SDS011;51367;45.204;38.576;2023-03-05T11:16:26;3.38;;;2.20;;
64873;SDS011;51367;45.204;38.576;2023-03-05T11:19:11;2.90;;;2.38;;
64873;SDS011;51367;45.204;38.576;2023-03-05T11:21:45;2.20;;;2.03;;
64873;SDS011;51367;45.204;38.576;2023-03-05T11:24:28;3.83;;;2.40;;
64873;SDS011;51367;45.204;38.576;2023-03-05T11:26:56;2.20;;;2.03;;
64873;SDS011;51367;45.204;38.576;2023-03-05T11:29:23;3.15;;;1.70;;
64873;SDS011;51367;45.204;38.576;2023-03-05T11:31:50;2.65;;;2.25;;
64873;SDS011;51367;45.204;38.576;2023-03-05T11:39:18;3.40;;;2.28;;
64873;SDS011;51367;45.204;38.576;2023-03-05T11:41:47;2.30;;;1.67;;
64873;SDS011;51367;45.204;38.576;2023-03-05T11:44:47;5.25;;;2.65;;
64873;SDS011;51367;45.204;38.576;2023-03-05T11:49:44;9.77;;;2.15;;
64873;SDS011;51367;45.204;38.576;2023-03-05T11:52:37;3.08;;;1.98;;
64873;SDS011;51367;45.204;38.576;2023-03-05T11:55:20;1.50;;;1.35;;
64873;SDS011;51367;45.204;38.576;2023-03-05T12:00:31;3.53;;;2.05;;
64873;SDS011;51367;45.204;38.576;2023-03-05T12:03:03;2.20;;;2.05;;
64873;SDS011;51367;45.204;38.576;2023-03-05T12:05:32;2.40;;;1.88;;
64873;SDS011;51367;45.204;38.576;2023-03-05T12:08:01;2.42;;;1.92;;
64873;SDS011;51367;45.204;38.576;2023-03-05T12:10:29;2.95;;;1.92;;
64873;SDS011;51367;45.204;38.576;2023-03-05T12:24:00;3.67;;;2.30;;
64873;SDS011;51367;45.204;38.576;2023-03-05T12:27:30;1.42;;;1.33;;
64873;SDS011;51367;45.204;38.576;2023-03-05T12:31:58;3.28;;;2.13;;
64873;SDS011;51367;45.204;38.576;2023-03-05T12:34:35;3.22;;;2.20;;
64873;SDS011;51367;45.204;38.576;2023-03-05T12:37:13;1.67;;;1.58;;
64873;SDS011;51367;45.204;38.576;2023-03-05T12:48:32;3.45;;;2.05;;
64873;SDS011;51367;45.204;38.576;2023-03-05T12:52:54;3.08;;;1.80;;
64873;SDS011;51367;45.204;38.576;2023-03-05T12:55:34;4.00;;;2.45;;
64873;SDS011;51367;45.204;38.576;2023-03-05T12:58:23;4.68;;;2.40;;
64873;SDS011;51367;45.204;38.576;2023-03-05T13:03:44;3.72;;;2.20;;
64873;SDS011;51367;45.204;38.576;2023-03-05T13:06:24;2.35;;;1.77;;
64873;SDS011;51367;45.204;38.576;2023-03-05T13:09:37;1.63;;;1.52;;
64873;SDS011;51367;45.204;38.576;2023-03-05T13:14:25;2.00;;;1.85;;
64873;SDS011;51367;45.204;38.576;2023-03-05T13:17:01;5.55;;;2.45;;
64873;SDS011;51367;45.204;38.576;2023-03-05T13:19:47;4.25;;;2.60;;
64873;SDS011;51367;45.204;38.576;2023-03-05T13:22:13;3.58;;;2.95;;
64873;SDS011;51367;45.204;38.576;2023-03-05T13:24:39;9.10;;;2.28;;
64873;SDS011;51367;45.204;38.576;2023-03-05T13:29:54;2.10;;;1.60;;
64873;SDS011;51367;45.204;38.576;2023-03-05T13:32:27;2.40;;;2.20;;
64873;SDS011;51367;45.204;38.576;2023-03-05T13:34:56;2.22;;;2.03;;
64873;SDS011;51367;45.204;38.576;2023-03-05T13:37:24;2.65;;;2.17;;
64873;SDS011;51367;45.204;38.576;2023-03-05T13:39:59;2.55;;;2.35;;
64873;SDS011;51367;45.204;38.576;2023-03-05T13:42:32;2.25;;;2.05;;
64873;SDS011;51367;45.204;38.576;2023-03-05T13:45:00;1.92;;;1.70;;
64873;SDS011;51367;45.204;38.576;2023-03-05T13:47:32;2.20;;;2.00;;
64873;SDS011;51367;45.204;38.576;2023-03-05T13:50:00;2.60;;;2.00;;
64873;SDS011;51367;45.204;38.576;2023-03-05T13:52:33;6.05;;;1.67;;
64873;SDS011;51367;45.204;38.576;2023-03-05T13:55:02;2.15;;;1.60;;
64873;SDS011;51367;45.204;38.576;2023-03-05T13:57:40;12.88;;;2.08;;
64873;SDS011;51367;45.204;38.576;2023-03-05T14:03:07;2.58;;;2.08;;
64873;SDS011;51367;45.204;38.576;2023-03-05T14:05:36;4.57;;;2.70;;
64873;SDS011;51367;45.204;38.576;2023-03-05T14:08:12;3.20;;;2.20;;
64873;SDS011;51367;45.204;38.576;2023-03-05T14:10:45;7.20;;;4.95;;
64873;SDS011;51367;45.204;38.576;2023-03-05T14:13:12;6.72;;;3.63;;
64873;SDS011;51367;45.204;38.576;2023-03-05T14:15:43;2.67;;;2.30;;
64873;SDS011;51367;45.204;38.576;2023-03-05T14:18:31;3.55;;;2.38;;
64873;SDS011;51367;45.204;38.576;2023-03-05T14:20:59;8.05;;;3.50;;
64873;SDS011;51367;45.204;38.576;2023-03-05T14:26:22;5.93;;;3.25;;
64873;SDS011;51367;45.204;38.576;2023-03-05T14:28:55;3.50;;;2.35;;
64873;SDS011;51367;45.204;38.576;2023-03-05T14:31:33;6.38;;;2.53;;
64873;SDS011;51367;45.204;38.576;2023-03-05T14:34:15;3.35;;;2.30;;
64873;SDS011;51367;45.204;38.576;2023-03-05T14:36:53;8.38;;;4.03;;
64873;SDS011;51367;45.204;38.576;2023-03-05T14:39:55;3.88;;;2.92;;
64873;SDS011;51367;45.204;38.576;2023-03-05T14:44:48;4.07;;;2.33;;
64873;SDS011;51367;45.204;38.576;2023-03-05T14:47:14;5.07;;;3.03;;
64873;SDS011;51367;45.204;38.576;2023-03-05T14:49:40;5.32;;;3.15;;
64873;SDS011;51367;45.204;38.576;2023-03-05T14:52:06;5.13;;;3.28;;
64873;SDS011;51367;45.204;38.576;2023-03-05T14:54:35;3.00;;;2.65;;
64873;SDS011;51367;45.204;38.576;2023-03-05T14:57:03;7.07;;;3.90;;
64873;SDS011;51367;45.204;38.576;2023-03-05T14:59:29;3.95;;;3.55;;
64873;SDS011;51367;45.204;38.576;2023-03-05T15:01:55;3.50;;;3.15;;
64873;SDS011;51367;45.204;38.576;2023-03-05T15:04:22;2.58;;;2.30;;
64873;SDS011;51367;45.204;38.576;2023-03-05T15:06:48;3.95;;;2.53;;
64873;SDS011;51367;45.204;38.576;2023-03-05T15:09:16;3.13;;;2.58;;
64873;SDS011;51367;45.204;38.576;2023-03-05T15:11:44;4.28;;;3.83;;
64873;SDS011;51367;45.204;38.576;2023-03-05T15:14:10;2.10;;;1.50;;
64873;SDS011;51367;45.204;38.576;2023-03-05T15:16:37;3.28;;;2.25;;
64873;SDS011;51367;45.204;38.576;2023-03-05T15:19:06;18.17;;;2.47;;
64873;SDS011;51367;45.204;38.576;2023-03-05T15:21:33;1.58;;;1.48;;
64873;SDS011;51367;45.204;38.576;2023-03-05T15:23:59;1.92;;;1.58;;
64873;SDS011;51367;45.204;38.576;2023-03-05T15:26:25;5.60;;;1.73;;
64873;SDS011;51367;45.204;38.576;2023-03-05T15:28:51;2.55;;;1.83;;
64873;SDS011;51367;45.204;38.576;2023-03-05T15:31:17;2.90;;;1.98;;
64873;SDS011;51367;45.204;38.576;2023-03-05T15:33:43;2.72;;;2.13;;
64873;SDS011;51367;45.204;38.576;2023-03-05T15:36:09;2.25;;;1.48;;
64873;SDS011;51367;45.204;38.576;2023-03-05T15:38:35;1.60;;;1.50;;
64873;SDS011;51367;45.204;38.576;2023-03-05T15:41:03;3.30;;;2.30;;
64873;SDS011;51367;45.204;38.576;2023-03-05T15:43:30;2.03;;;1.80;;
64873;SDS011;51367;45.204;38.576;2023-03-05T15:45:56;6.43;;;2.00;;
64873;SDS011;51367;45.204;38.576;2023-03-05T15:48:22;3.85;;;2.10;;
64873;SDS011;51367;45.204;38.576;2023-03-05T15:50:47;3.75;;;2.08;;
64873;SDS011;51367;45.204;38.576;2023-03-05T15:53:13;1.67;;;1.58;;
64873;SDS011;51367;45.204;38.576;2023-03-05T15:55:41;2.05;;;1.92;;
64873;SDS011;51367;45.204;38.576;2023-03-05T15:58:08;2.05;;;1.73;;
64873;SDS011;51367;45.204;38.576;2023-03-05T16:00:37;2.65;;;2.05;;
64873;SDS011;51367;45.204;38.576;2023-03-05T16:03:05;3.30;;;1.83;;
64873;SDS011;51367;45.204;38.576;2023-03-05T16:05:32;3.03;;;2.67;;
64873;SDS011;51367;45.204;38.576;2023-03-05T16:07:59;4.95;;;1.98;;
64873;SDS011;51367;45.204;38.576;2023-03-05T16:10:26;3.63;;;2.47;;
64873;SDS011;51367;45.204;38.576;2023-03-05T16:12:54;5.68;;;3.17;;
64873;SDS011;51367;45.204;38.576;2023-03-05T16:15:30;1.88;;;1.65;;
64873;SDS011;51367;45.204;38.576;2023-03-05T16:17:57;2.85;;;2.35;;
64873;SDS011;51367;45.204;38.576;2023-03-05T16:20:25;6.60;;;2.10;;